createdAt,value
2018-01-16T00:01:35.880Z,1.20
2018-01-16T00:04:04.880Z,1.40
2018-01-16T00:06:33.911Z,1.20
2018-01-16T00:09:02.173Z,1.40
2018-01-16T00:11:31.310Z,1.00
2018-01-16T00:13:59.555Z,1.30
2018-01-16T00:16:28.592Z,1.10
2018-01-16T00:18:56.841Z,1.10
2018-01-16T00:21:25.074Z,1.30
2018-01-16T00:23:53.337Z,1.20
2018-01-16T00:26:22.356Z,1.00
2018-01-16T00:28:50.610Z,1.13
2018-01-16T00:31:18.888Z,1.07
2018-01-16T00:33:47.167Z,1.30
2018-01-16T00:36:15.488Z,1.17
2018-01-16T00:38:44.569Z,1.10
2018-01-16T00:41:12.911Z,1.40
2018-01-16T00:43:41.166Z,0.90
2018-01-16T00:46:09.417Z,1.03
2018-01-16T00:48:37.682Z,0.90
2018-01-16T00:51:05.951Z,1.00
2018-01-16T00:53:34.995Z,1.10
2018-01-16T00:56:03.260Z,1.00
2018-01-16T00:58:31.518Z,1.00
2018-01-16T01:00:59.769Z,0.80
2018-01-16T01:03:28.032Z,0.90
2018-01-16T01:05:56.276Z,0.80
2018-01-16T01:08:24.533Z,1.10
2018-01-16T01:10:52.782Z,0.80
2018-01-16T01:13:21.813Z,0.90
2018-01-16T01:15:50.107Z,0.90
2018-01-16T01:18:19.224Z,0.80
2018-01-16T01:20:47.513Z,0.90
2018-01-16T01:23:15.847Z,0.80
2018-01-16T01:25:44.171Z,0.80
2018-01-16T01:28:12.459Z,0.80
2018-01-16T01:30:40.714Z,0.80
2018-01-16T01:33:08.973Z,1.00
2018-01-16T01:35:37.226Z,0.70
2018-01-16T01:38:05.477Z,0.83
2018-01-16T01:40:33.758Z,0.80
2018-01-16T01:43:02.032Z,0.70
2018-01-16T01:45:30.291Z,0.80
2018-01-16T01:47:58.570Z,0.90
2018-01-16T01:50:26.837Z,0.80
2018-01-16T01:52:55.858Z,0.90
2018-01-16T01:55:24.114Z,0.90
2018-01-16T01:57:52.351Z,0.87
2018-01-16T02:00:20.620Z,0.90
2018-01-16T02:02:48.869Z,0.80
2018-01-16T02:05:17.139Z,0.80
2018-01-16T02:07:45.382Z,0.90
2018-01-16T02:10:14.402Z,0.73
2018-01-16T02:12:42.691Z,0.80
2018-01-16T02:15:11.719Z,0.90
2018-01-16T02:17:39.983Z,0.60
2018-01-16T02:20:08.283Z,0.80
2018-01-16T02:22:36.527Z,0.70
2018-01-16T02:25:04.811Z,0.83
2018-01-16T02:27:33.055Z,0.80
2018-01-16T02:30:01.313Z,0.67
2018-01-16T02:32:29.546Z,1.00
2018-01-16T02:34:57.824Z,0.80
2018-01-16T02:37:26.858Z,0.80
2018-01-16T02:39:55.127Z,0.70
2018-01-16T02:42:23.372Z,0.70
2018-01-16T02:44:52.406Z,0.70
2018-01-16T02:47:20.656Z,0.73
2018-01-16T02:49:49.681Z,0.80
2018-01-16T02:52:17.939Z,0.80
2018-01-16T02:54:46.203Z,0.77
2018-01-16T02:57:14.456Z,0.60
2018-01-16T02:59:42.715Z,0.70
2018-01-16T03:02:11.731Z,0.70
2018-01-16T03:04:40.755Z,0.80
2018-01-16T03:07:09.004Z,0.70
2018-01-16T03:09:37.313Z,0.70
2018-01-16T03:12:06.348Z,0.70
2018-01-16T03:14:35.548Z,0.70
2018-01-16T03:17:03.804Z,0.70
2018-01-16T03:19:32.052Z,0.60
2018-01-16T03:22:00.319Z,0.80
2018-01-16T03:24:28.563Z,0.70
2018-01-16T03:26:56.835Z,0.70
2018-01-16T03:29:25.091Z,0.80
2018-01-16T03:31:53.372Z,0.67
2018-01-16T03:34:22.406Z,0.80
2018-01-16T03:36:50.732Z,0.70
2018-01-16T03:39:19.828Z,0.60
2018-01-16T03:41:48.149Z,0.70
2018-01-16T03:44:18.583Z,0.77
2018-01-16T03:46:47.659Z,0.60
2018-01-16T03:49:16.657Z,0.70
2018-01-16T03:51:44.911Z,0.70
2018-01-16T03:54:13.159Z,0.70
2018-01-16T03:56:41.425Z,0.70
2018-01-16T03:59:09.666Z,0.60
2018-01-16T04:01:37.986Z,0.70
2018-01-16T04:04:06.222Z,0.80
2018-01-16T04:06:34.491Z,0.80
2018-01-16T04:09:02.740Z,0.70
2018-01-16T04:11:31.016Z,0.70
2018-01-16T04:13:59.265Z,0.80
2018-01-16T04:16:27.536Z,0.70
2018-01-16T04:18:55.779Z,0.63
2018-01-16T04:21:24.026Z,0.70
2018-01-16T04:23:52.278Z,0.67
2018-01-16T04:26:20.542Z,0.70
2018-01-16T04:28:48.775Z,0.70
2018-01-16T04:31:17.048Z,0.70
2018-01-16T04:33:45.302Z,0.80
2018-01-16T04:36:14.318Z,0.80
2018-01-16T04:38:43.347Z,0.70
2018-01-16T04:41:11.678Z,0.73
2018-01-16T04:43:39.966Z,0.67
2018-01-16T04:46:09.063Z,0.60
2018-01-16T04:48:37.366Z,0.80
2018-01-16T04:51:05.651Z,0.70
2018-01-16T04:53:33.894Z,0.80
2018-01-16T04:56:02.144Z,0.70
2018-01-16T04:58:31.168Z,1.07
2018-01-16T05:01:00.196Z,0.70
2018-01-16T05:03:28.483Z,0.60
2018-01-16T05:05:56.755Z,0.80
2018-01-16T05:08:25.024Z,0.90
2018-01-16T05:10:53.263Z,0.77
2018-01-16T05:13:21.535Z,0.70
2018-01-16T05:15:49.793Z,0.67
2018-01-16T05:18:18.815Z,0.80
2018-01-16T05:20:47.063Z,0.90
2018-01-16T05:23:15.336Z,0.70
2018-01-16T05:25:43.591Z,0.70
2018-01-16T05:28:11.892Z,0.80
2018-01-16T05:30:40.154Z,0.70
2018-01-16T05:33:08.467Z,0.60
2018-01-16T05:35:36.712Z,0.60
2018-01-16T05:38:05.736Z,0.70
2018-01-16T05:40:34.748Z,0.80
2018-01-16T05:43:03.025Z,0.70
2018-01-16T05:45:32.280Z,0.80
2018-01-16T05:48:00.640Z,0.70
2018-01-16T05:50:28.891Z,0.80
2018-01-16T05:52:57.168Z,0.80
2018-01-16T05:55:25.411Z,0.80
2018-01-16T05:57:53.671Z,0.87
2018-01-16T06:00:21.978Z,0.70
2018-01-16T06:02:51.072Z,0.87
2018-01-16T06:05:19.351Z,0.70
2018-01-16T06:07:47.603Z,0.90
2018-01-16T06:10:15.894Z,0.90
2018-01-16T06:12:44.147Z,0.83
2018-01-16T06:15:12.408Z,0.90
2018-01-16T06:17:40.926Z,0.80
2018-01-16T06:20:09.971Z,0.80
2018-01-16T06:22:38.273Z,0.87
2018-01-16T06:25:06.546Z,0.87
2018-01-16T06:27:34.787Z,0.90
2018-01-16T06:30:03.868Z,0.97
2018-01-16T06:32:32.106Z,0.80
2018-01-16T06:35:00.364Z,0.60
2018-01-16T06:37:29.370Z,0.83
2018-01-16T06:39:57.643Z,0.80
2018-01-16T06:42:25.891Z,0.80
2018-01-16T06:44:54.197Z,0.70
2018-01-16T06:47:22.463Z,0.90
2018-01-16T06:49:50.773Z,0.73
2018-01-16T06:52:19.034Z,0.80
2018-01-16T06:54:47.301Z,0.80
2018-01-16T06:57:16.299Z,0.80
2018-01-16T06:59:45.323Z,0.70
2018-01-16T07:02:14.339Z,0.70
2018-01-16T07:04:42.584Z,0.70
2018-01-16T07:07:10.835Z,0.67
2018-01-16T07:09:39.107Z,0.80
2018-01-16T07:12:07.384Z,0.70
2018-01-16T07:14:36.412Z,0.80
2018-01-16T07:17:04.659Z,0.83
2018-01-16T07:19:32.938Z,1.20
2018-01-16T07:22:01.203Z,0.80
2018-01-16T07:24:29.459Z,0.90
2018-01-16T07:26:57.723Z,0.70
2018-01-16T07:29:25.987Z,1.00
2018-01-16T07:31:54.237Z,0.80
2018-01-16T07:34:22.505Z,0.90
2018-01-16T07:36:51.511Z,0.70
2018-01-16T07:39:19.753Z,0.90
2018-01-16T07:41:48.027Z,0.70
2018-01-16T07:44:16.281Z,0.80
2018-01-16T07:46:44.608Z,0.97
2018-01-16T07:49:13.672Z,0.77
2018-01-16T07:51:42.781Z,0.73
2018-01-16T07:54:11.843Z,1.00
2018-01-16T07:56:40.127Z,0.70
2018-01-16T07:59:08.454Z,0.90
2018-01-16T08:01:37.483Z,0.77
2018-01-16T08:04:05.735Z,0.90
2018-01-16T08:06:33.991Z,0.70
2018-01-16T08:09:02.249Z,0.90
2018-01-16T08:11:30.516Z,0.87
2018-01-16T08:13:59.608Z,0.80
2018-01-16T08:16:29.514Z,0.90
2018-01-16T08:18:57.847Z,0.93
2018-01-16T08:21:26.879Z,0.80
2018-01-16T08:23:55.142Z,0.70
2018-01-16T08:26:24.172Z,0.70
2018-01-16T08:28:52.408Z,0.70
2018-01-16T08:31:20.669Z,0.73
2018-01-16T08:33:48.912Z,0.80
2018-01-16T08:36:17.942Z,1.20
2018-01-16T08:38:46.226Z,0.80
2018-01-16T08:41:14.532Z,1.03
2018-01-16T08:43:42.899Z,0.80
2018-01-16T08:46:11.934Z,0.70
2018-01-16T08:48:40.182Z,0.87
2018-01-16T08:51:09.219Z,0.90
2018-01-16T08:53:37.468Z,0.90
2018-01-16T08:56:06.521Z,0.80
2018-01-16T08:58:34.774Z,1.03
2018-01-16T09:01:03.058Z,0.97
2018-01-16T09:03:31.421Z,0.90
2018-01-16T09:05:59.719Z,1.10
2018-01-16T09:08:27.962Z,1.17
2018-01-16T09:10:56.213Z,0.90
2018-01-16T09:13:25.292Z,0.80
2018-01-16T09:15:53.542Z,0.90
2018-01-16T09:18:21.860Z,0.80
2018-01-16T09:20:50.152Z,0.90
2018-01-16T09:23:18.611Z,0.80
2018-01-16T09:25:47.648Z,0.83
2018-01-16T09:28:15.977Z,0.83
2018-01-16T09:30:44.993Z,0.90
2018-01-16T09:33:14.024Z,0.90
2018-01-16T09:35:42.270Z,0.70
2018-01-16T09:38:10.548Z,0.70
2018-01-16T09:40:38.800Z,0.80
2018-01-16T09:43:07.162Z,0.83
2018-01-16T09:45:35.457Z,0.90
2018-01-16T09:48:03.719Z,0.90
2018-01-16T09:50:31.965Z,0.77
2018-01-16T09:53:00.248Z,0.97
2018-01-16T09:55:28.518Z,0.80
2018-01-16T09:57:56.833Z,0.80
2018-01-16T10:00:25.074Z,0.90
2018-01-16T10:02:53.346Z,0.73
2018-01-16T10:05:21.631Z,0.80
2018-01-16T10:07:49.887Z,1.00
2018-01-16T10:10:18.147Z,0.70
2018-01-16T10:12:47.205Z,0.73
2018-01-16T10:15:16.261Z,0.80
2018-01-16T10:17:44.531Z,0.80
2018-01-16T10:20:14.151Z,0.80
2018-01-16T10:22:42.450Z,0.80
2018-01-16T10:25:11.485Z,1.10
2018-01-16T10:27:39.767Z,0.80
2018-01-16T10:30:08.097Z,0.90
2018-01-16T10:32:36.393Z,0.80
2018-01-16T10:35:04.647Z,0.70
2018-01-16T10:37:32.896Z,0.80
2018-01-16T10:40:02.558Z,0.80
2018-01-16T10:42:30.807Z,0.80
2018-01-16T10:44:59.118Z,0.80
2018-01-16T10:47:27.390Z,0.73
2018-01-16T10:49:56.429Z,0.87
2018-01-16T10:52:24.683Z,0.80
2018-01-16T10:54:53.723Z,1.00
2018-01-16T10:57:21.971Z,0.80
2018-01-16T10:59:51.763Z,0.90
2018-01-16T11:02:20.016Z,0.80
2018-01-16T11:04:48.279Z,0.80
2018-01-16T11:07:17.283Z,0.67
2018-01-16T11:09:46.328Z,0.77
2018-01-16T11:12:14.573Z,1.00
2018-01-16T11:14:43.622Z,0.90
2018-01-16T11:17:11.883Z,0.80
2018-01-16T11:19:40.979Z,0.80
2018-01-16T11:22:09.275Z,0.80
2018-01-16T11:24:37.579Z,0.70
2018-01-16T11:27:05.875Z,0.90
2018-01-16T11:29:34.129Z,0.70
2018-01-16T11:32:03.152Z,0.70
2018-01-16T11:34:32.372Z,0.90
2018-01-16T11:37:01.062Z,0.80
2018-01-16T11:39:30.087Z,0.80
2018-01-16T11:41:58.516Z,0.90
2018-01-16T11:44:26.827Z,0.80
2018-01-16T11:46:55.063Z,0.80
2018-01-16T11:49:23.333Z,0.70
2018-01-16T11:51:51.583Z,0.80
2018-01-16T11:54:19.850Z,0.70
2018-01-16T11:56:48.095Z,0.70
2018-01-16T11:59:16.362Z,0.60
2018-01-16T12:01:44.635Z,0.77
2018-01-16T12:04:12.921Z,0.60
2018-01-16T12:06:41.182Z,0.60
2018-01-16T12:09:09.467Z,0.90
2018-01-16T12:11:37.793Z,0.70
2018-01-16T12:14:06.024Z,0.80
2018-01-16T12:16:34.287Z,1.10
2018-01-16T12:19:02.546Z,0.70
2018-01-16T12:21:30.802Z,0.93
2018-01-16T12:23:59.080Z,0.83
2018-01-16T12:26:27.358Z,0.73
2018-01-16T12:28:55.605Z,0.80
2018-01-16T12:31:23.885Z,0.90
2018-01-16T12:33:52.128Z,0.90
2018-01-16T12:36:20.403Z,0.80
2018-01-16T12:38:48.651Z,0.70
2018-01-16T12:41:16.906Z,0.97
2018-01-16T12:43:45.162Z,0.80
2018-01-16T12:46:13.515Z,0.70
2018-01-16T12:48:41.841Z,0.70
2018-01-16T12:51:10.889Z,0.90
2018-01-16T12:53:39.183Z,0.60
2018-01-16T12:56:07.444Z,0.90
2018-01-16T12:58:35.696Z,0.73
2018-01-16T13:01:03.979Z,0.83
2018-01-16T13:03:32.215Z,0.60
2018-01-16T13:06:00.470Z,0.77
2018-01-16T13:08:28.723Z,0.90
2018-01-16T13:10:57.039Z,0.70
2018-01-16T13:13:25.304Z,1.00
2018-01-16T13:15:53.575Z,0.80
2018-01-16T13:18:21.848Z,0.90
2018-01-16T13:20:50.873Z,0.60
2018-01-16T13:23:19.123Z,0.90
2018-01-16T13:25:48.143Z,1.03
2018-01-16T13:28:17.159Z,0.80
2018-01-16T13:30:45.435Z,0.80
2018-01-16T13:33:14.457Z,0.80
2018-01-16T13:35:42.711Z,0.60
2018-01-16T13:38:10.993Z,1.07
2018-01-16T13:40:39.246Z,0.90
2018-01-16T13:43:07.500Z,0.83
2018-01-16T13:45:36.512Z,0.90
2018-01-16T13:48:04.783Z,0.93
2018-01-16T13:50:33.798Z,1.00
2018-01-16T13:53:02.854Z,0.90
2018-01-16T13:55:31.066Z,0.70
2018-01-16T13:57:59.344Z,0.80
2018-01-16T14:00:27.596Z,0.80
2018-01-16T14:02:55.881Z,0.83
2018-01-16T14:05:24.230Z,1.07
2018-01-16T14:07:52.503Z,0.60
2018-01-16T14:10:20.827Z,0.80
2018-01-16T14:12:49.961Z,0.90
2018-01-16T14:15:18.222Z,0.80
2018-01-16T14:17:46.502Z,0.90
2018-01-16T14:20:14.757Z,0.80
2018-01-16T14:22:43.024Z,1.10
2018-01-16T14:25:11.267Z,0.80
2018-01-16T14:27:40.297Z,0.83
2018-01-16T14:30:08.551Z,0.90
2018-01-16T14:32:37.595Z,0.60
2018-01-16T14:35:05.844Z,0.90
2018-01-16T14:37:34.175Z,0.70
2018-01-16T14:40:03.192Z,0.80
2018-01-16T14:42:31.455Z,0.90
2018-01-16T14:45:00.489Z,0.93
2018-01-16T14:47:28.740Z,1.03
2018-01-16T14:49:56.997Z,0.90
2018-01-16T14:52:25.267Z,1.17
2018-01-16T14:54:53.644Z,1.00
2018-01-16T14:57:21.951Z,0.93
2018-01-16T14:59:50.258Z,0.83
2018-01-16T15:02:18.528Z,0.93
2018-01-16T15:04:46.806Z,0.80
2018-01-16T15:07:15.061Z,0.80
2018-01-16T15:09:44.091Z,0.80
2018-01-16T15:12:12.342Z,0.87
2018-01-16T15:14:40.631Z,1.00
2018-01-16T15:17:08.940Z,1.00
2018-01-16T15:19:37.967Z,0.90
2018-01-16T15:22:06.216Z,1.10
2018-01-16T15:24:34.480Z,0.90
2018-01-16T15:27:02.717Z,0.87
2018-01-16T15:29:31.766Z,1.00
2018-01-16T15:32:00.029Z,1.03
2018-01-16T15:34:28.299Z,1.00
2018-01-16T15:36:57.308Z,1.07
2018-01-16T15:39:26.335Z,1.20
2018-01-16T15:41:54.625Z,1.10
2018-01-16T15:44:22.911Z,1.17
2018-01-16T15:46:51.242Z,1.13
2018-01-16T15:49:19.534Z,1.00
2018-01-16T15:51:47.770Z,1.70
2018-01-16T15:54:16.071Z,1.20
2018-01-16T15:56:44.323Z,0.90
2018-01-16T15:59:12.629Z,0.90
2018-01-16T16:01:40.894Z,0.93
2018-01-16T16:04:09.967Z,1.00
2018-01-16T16:06:38.392Z,1.07
2018-01-16T16:09:07.435Z,0.97
2018-01-16T16:11:35.692Z,1.10
2018-01-16T16:14:03.964Z,0.90
2018-01-16T16:16:32.212Z,1.20
2018-01-16T16:19:00.556Z,1.07
2018-01-16T16:21:28.833Z,0.80
2018-01-16T16:23:57.125Z,1.00
2018-01-16T16:26:25.437Z,1.00
2018-01-16T16:28:53.656Z,1.10
2018-01-16T16:31:21.913Z,1.10
2018-01-16T16:33:50.172Z,0.97
2018-01-16T16:36:18.457Z,0.90
2018-01-16T16:38:46.719Z,1.30
2018-01-16T16:41:14.974Z,1.10
2018-01-16T16:43:44.018Z,1.50
2018-01-16T16:46:12.298Z,1.33
2018-01-16T16:48:40.615Z,1.47
2018-01-16T16:51:08.945Z,0.90
2018-01-16T16:53:37.212Z,0.93
2018-01-16T16:56:05.488Z,1.30
2018-01-16T16:58:33.735Z,1.10
2018-01-16T17:01:02.000Z,1.00
2018-01-16T17:03:31.020Z,1.17
2018-01-16T17:06:00.052Z,1.00
2018-01-16T17:08:28.287Z,1.00
2018-01-16T17:10:56.565Z,1.10
2018-01-16T17:13:24.901Z,1.23
2018-01-16T17:15:53.959Z,1.10
2018-01-16T17:18:22.220Z,1.17
2018-01-16T17:20:50.530Z,1.10
2018-01-16T17:23:18.801Z,1.00
2018-01-16T17:25:47.059Z,1.20
2018-01-16T17:28:15.307Z,1.40
2018-01-16T17:30:43.583Z,1.10
2018-01-16T17:33:11.857Z,1.10
2018-01-16T17:35:40.134Z,1.37
2018-01-16T17:38:08.414Z,1.20
2018-01-16T17:40:36.700Z,1.27
2018-01-16T17:43:04.951Z,1.00
2018-01-16T17:45:33.579Z,1.10
2018-01-16T17:48:01.846Z,1.27
2018-01-16T17:50:30.880Z,1.30
2018-01-16T17:52:59.138Z,1.60
2018-01-16T17:55:27.406Z,1.77
2018-01-16T17:57:55.668Z,1.57
2018-01-16T18:00:23.936Z,1.90
2018-01-16T18:02:52.235Z,1.70
2018-01-16T18:05:20.611Z,1.00
2018-01-16T18:07:48.924Z,1.10
2018-01-16T18:10:17.951Z,1.10
2018-01-16T18:12:46.239Z,1.20
2018-01-16T18:15:14.543Z,1.20
2018-01-16T18:17:43.248Z,1.20
2018-01-16T18:20:11.512Z,1.47
2018-01-16T18:22:39.791Z,1.30
2018-01-16T18:25:08.797Z,1.30
2018-01-16T18:27:37.083Z,1.40
2018-01-16T18:30:05.332Z,0.90
2018-01-16T18:32:34.474Z,1.10
2018-01-16T18:35:02.720Z,1.70
2018-01-16T18:37:30.983Z,1.37
2018-01-16T18:39:59.232Z,1.37
2018-01-16T18:42:27.488Z,1.30
2018-01-16T18:44:55.735Z,1.20
2018-01-16T18:47:24.041Z,1.37
2018-01-16T18:49:52.304Z,1.57
2018-01-16T18:52:20.612Z,1.40
2018-01-16T18:54:48.895Z,1.37
2018-01-16T18:57:17.939Z,1.20
2018-01-16T18:59:46.975Z,1.30
2018-01-16T19:02:15.260Z,1.20
2018-01-16T19:04:44.270Z,1.33
2018-01-16T19:07:12.541Z,1.70
2018-01-16T19:09:41.561Z,1.30
2018-01-16T19:12:10.612Z,1.30
2018-01-16T19:14:38.870Z,1.20
2018-01-16T19:17:07.215Z,1.43
2018-01-16T19:19:33.379Z,1.20
2018-01-16T19:22:00.296Z,1.30
2018-01-16T19:24:26.518Z,1.10
2018-01-16T19:26:52.711Z,1.20
2018-01-16T19:29:18.983Z,1.10
2018-01-16T19:31:45.133Z,0.97
2018-01-16T19:34:11.300Z,1.10
2018-01-16T19:36:37.565Z,1.40
2018-01-16T19:39:03.750Z,0.93
2018-01-16T19:41:29.928Z,1.20
2018-01-16T19:43:56.909Z,1.10
2018-01-16T19:46:23.896Z,0.90
2018-01-16T19:48:50.217Z,1.30
2018-01-16T19:51:17.144Z,1.40
2018-01-16T19:53:43.306Z,1.20
2018-01-16T19:56:09.540Z,1.30
2018-01-16T19:58:35.732Z,1.13
2018-01-16T20:01:03.025Z,1.13
2018-01-16T20:03:29.268Z,1.40
2018-01-16T20:05:55.467Z,1.13
2018-01-16T20:08:21.715Z,1.17
2018-01-16T20:10:47.989Z,1.20
2018-01-16T20:13:14.944Z,1.30
2018-01-16T20:15:41.200Z,1.70
2018-01-16T20:18:07.480Z,1.40
2018-01-16T20:20:33.703Z,1.40
2018-01-16T20:23:00.583Z,1.87
2018-01-16T20:25:26.850Z,2.20
2018-01-16T20:27:53.069Z,1.50
2018-01-16T20:30:19.239Z,1.40
2018-01-16T20:32:45.418Z,1.10
2018-01-16T20:35:11.670Z,1.10
2018-01-16T20:37:38.743Z,1.30
2018-01-16T20:40:04.997Z,0.93
2018-01-16T20:42:31.980Z,1.10
2018-01-16T20:44:58.194Z,0.90
2018-01-16T20:47:24.467Z,1.10
2018-01-16T20:49:51.320Z,1.00
2018-01-16T20:52:17.576Z,1.00
2018-01-16T20:54:43.919Z,0.90
2018-01-16T20:57:10.157Z,0.83
2018-01-16T20:59:36.410Z,1.00
2018-01-16T21:02:02.583Z,1.43
2018-01-16T21:04:29.553Z,1.17
2018-01-16T21:06:55.721Z,1.43
2018-01-16T21:09:21.982Z,1.20
2018-01-16T21:11:48.143Z,1.33
2018-01-16T21:14:14.366Z,1.17
2018-01-16T21:16:40.709Z,1.23
2018-01-16T21:19:07.018Z,1.27
2018-01-16T21:21:33.215Z,1.10
2018-01-16T21:24:00.186Z,1.40
2018-01-16T21:26:27.158Z,1.30
2018-01-16T21:28:53.350Z,1.90
2018-01-16T21:31:19.500Z,1.13
2018-01-16T21:33:45.826Z,1.43
2018-01-16T21:36:12.045Z,1.60
2018-01-16T21:38:38.289Z,1.20
2018-01-16T21:41:04.584Z,1.10
2018-01-16T21:43:31.492Z,1.30
2018-01-16T21:45:57.794Z,1.10
2018-01-16T21:48:24.093Z,1.20
2018-01-16T21:50:50.349Z,1.27
2018-01-16T21:53:16.624Z,1.10
2018-01-16T21:55:42.858Z,1.30
2018-01-16T21:58:09.020Z,1.60
2018-01-16T22:00:35.939Z,1.20
2018-01-16T22:03:02.895Z,1.10
2018-01-16T22:05:29.834Z,1.10
2018-01-16T22:07:56.068Z,1.37
2018-01-16T22:10:22.315Z,1.10
2018-01-16T22:12:48.482Z,1.20
2018-01-16T22:15:14.763Z,1.07
2018-01-16T22:17:40.948Z,1.30
2018-01-16T22:20:07.197Z,1.17
2018-01-16T22:22:34.087Z,0.97
2018-01-16T22:25:00.368Z,1.00
2018-01-16T22:27:26.681Z,1.00
2018-01-16T22:29:53.136Z,1.20
2018-01-16T22:32:19.672Z,1.13
2018-01-16T22:34:48.239Z,0.90
2018-01-16T22:37:15.182Z,0.90
2018-01-16T22:39:41.382Z,0.70
2018-01-16T22:42:07.831Z,1.10
2018-01-16T22:44:34.317Z,0.63
2018-01-16T22:47:01.760Z,0.80
2018-01-16T22:49:28.647Z,1.00
2018-01-16T22:51:55.550Z,0.90
2018-01-16T22:54:22.026Z,0.90
2018-01-16T22:56:48.478Z,0.83
2018-01-16T22:59:14.656Z,1.57
2018-01-16T23:01:40.815Z,1.73
2018-01-16T23:04:07.426Z,1.30
2018-01-16T23:06:34.710Z,0.90
2018-01-16T23:09:00.912Z,1.40
2018-01-16T23:11:27.072Z,1.00
2018-01-16T23:13:53.971Z,1.20
2018-01-16T23:16:20.123Z,0.90
2018-01-16T23:18:46.251Z,1.30
2018-01-16T23:21:12.451Z,0.83
2018-01-16T23:23:39.363Z,0.93
2018-01-16T23:26:05.593Z,0.90
2018-01-16T23:28:31.776Z,0.90
2018-01-16T23:30:57.934Z,1.00
2018-01-16T23:33:24.832Z,1.20
2018-01-16T23:35:51.075Z,1.20
2018-01-16T23:38:17.276Z,1.00
2018-01-16T23:40:43.428Z,1.10
2018-01-16T23:43:09.641Z,1.33
2018-01-16T23:45:36.676Z,1.07
2018-01-16T23:48:03.067Z,1.00
2018-01-16T23:50:29.309Z,0.83
2018-01-16T23:52:56.181Z,1.20
2018-01-16T23:55:22.345Z,1.10
2018-01-16T23:57:48.527Z,1.03
